Date,TemperatureHighF,TemperatureAvgF,TemperatureLowF,DewpointHighF,DewpointAvgF,DewpointLowF,HumidityHigh,HumidityAvg,HumidityLow,PressureMaxIn,PressureMinIn,WindSpeedMaxMPH,WindSpeedAvgMPH,GustSpeedMaxMPH,PrecipitationSumIn
2013-7-1,68,64,60,63,61,59,96,92,81,30.03,29.88,4,1,8,0.08
2013-7-2,77,66,58,69,63,58,97,91,77,30.05,29.97,5,1,8,0.01
2013-7-3,88,73,62,74,68,61,99,86,57,30.10,30.03,3,1,7,0.05
2013-7-4,84,74,68,73,70,67,97,88,62,30.14,30.06,6,1,15,0.16
2013-7-5,82,73,66,73,69,65,98,89,67,30.09,30.02,7,2,14,0.02
2013-7-6,85,75,64,72,68,63,98,83,61,30.11,29.98,4,1,7,0.00
2013-7-7,79,74,70,71,69,66,97,85,70,30.01,29.90,9,3,16,0.02
2013-7-8,80,74,69,72,69,65,94,85,65,30.02,29.93,6,2,14,0.00
2013-7-9,80,73,68,73,70,67,97,89,76,30.00,29.85,5,1,10,0.02
2013-7-10,81,75,67,75,70,64,98,86,73,29.85,29.66,11,4,19,0.00
2013-7-11,77,68,60,67,60,56,95,75,53,29.98,29.79,3,1,17,0.00
2013-7-12,74,65,56,66,61,55,98,88,71,30.14,29.98,3,0,17,0.00
2013-7-13,83,70,57,71,65,56,98,85,63,30.20,30.13,3,0,17,0.00
2013-7-14,90,76,62,76,69,62,99,80,53,30.26,30.18,3,0,17,0.00
2013-7-15,89,78,68,76,71,63,97,80,50,30.25,30.18,3,0,17,0.00
2013-7-16,92,78,66,76,70,64,97,77,44,30.24,30.16,4,0,17,0.00
2013-7-17,89,81,72,79,74,70,95,82,56,30.19,30.04,10,1,20,0.05
2013-7-18,89,81,73,79,74,71,97,82,62,30.06,29.90,4,0,8,0.00
2013-7-19,88,81,67,76,72,65,98,75,56,29.90,29.67,23,5,32,2.17
2013-7-20,81,72,64,71,68,62,98,88,55,29.85,29.66,9,2,15,0.39
2013-7-21,78,69,61,66,63,58,97,82,58,29.95,29.85,4,1,7,0.00
2013-7-22,80,69,57,70,63,56,98,84,66,29.96,29.73,3,0,7,0.00
2013-7-23,79,71,63,70,67,60,98,86,62,29.73,29.57,9,2,19,0.25
2013-7-24,66,61,51,60,53,48,96,76,56,30.02,29.68,5,1,15,0.00
2013-7-25,73,60,48,58,52,47,98,77,49,30.10,30.01,5,1,7,0.00
2013-7-26,80,62,47,62,54,46,99,78,49,30.10,29.96,3,0,6,0.00
2013-7-27,77,66,54,68,61,53,98,85,63,29.96,29.77,4,1,8,0.10
2013-7-28,71,66,58,64,59,54,93,79,60,29.94,29.75,8,2,15,0.00
2013-7-29,69,62,55,60,57,53,95,84,69,30.11,29.93,7,2,14,0.00
2013-7-30,73,63,51,63,57,50,98,83,62,30.17,30.11,6,1,11,0.00
2013-7-31,79,66,53,64,58,52,98,79,49,30.13,29.89,4,0,9,0.00